Time;durP1;ratioP1;P1;durP2;ratioP2;P2;SDS_P1;SDS_P2;PMS_P1;PMS_P2;Temp;Humidity;BMP_temperature;BMP_pressure;BME280_temperature;BME280_humidity;BME280_pressure;Samples;Min_cycle;Max_cycle;Signal;HPM_P1;HPM_P2
2021/12/26 00:00:23;;;;;;;5.33;2.90;;;;;;;-2.11;66.80;100804.94;5062344;28;20107;-62
2021/12/26 00:02:48;;;;;;;5.67;3.00;;;;;;;-2.13;66.91;100807.66;5055716;28;20021;-62
2021/12/26 00:05:14;;;;;;;7.63;3.97;;;;;;;-2.11;66.71;100807.56;5059047;28;20120;-62
2021/12/26 00:07:39;;;;;;;6.43;3.93;;;;;;;-2.12;66.75;100811.91;5051563;28;20033;-62
2021/12/26 00:10:08;;;;;;;5.17;4.33;;;;;;;-2.14;66.46;100813.78;5056593;28;20032;-62
2021/12/26 00:12:34;;;;;;;7.35;5.15;;;;;;;-2.13;66.37;100812.00;5058439;28;20474;-62
2021/12/26 00:14:59;;;;;;;6.93;5.17;;;;;;;-2.16;66.31;100809.59;5055678;28;20017;-62
2021/12/26 00:17:24;;;;;;;8.67;4.87;;;;;;;-2.15;66.61;100808.66;5057256;28;20582;-62
2021/12/26 00:19:50;;;;;;;5.47;4.13;;;;;;;-2.16;66.48;100802.63;5055853;28;20020;-62
2021/12/26 00:22:15;;;;;;;7.00;4.97;;;;;;;-2.15;66.62;100799.09;5054813;28;20083;-62
2021/12/26 00:24:41;;;;;;;4.30;3.40;;;;;;;-2.16;66.37;100797.44;5054095;28;20017;-62
2021/12/26 00:27:06;;;;;;;6.20;3.37;;;;;;;-2.12;66.04;100792.88;5060650;28;20036;-63
2021/12/26 00:29:32;;;;;;;5.20;2.90;;;;;;;-2.11;66.33;100797.16;5064312;28;20020;-62
2021/12/26 00:31:57;;;;;;;4.03;2.70;;;;;;;-2.10;66.55;100791.00;5059255;28;20107;-62
2021/12/26 00:34:22;;;;;;;5.37;3.00;;;;;;;-2.07;66.73;100785.63;5059190;28;20057;-62
2021/12/26 00:36:48;;;;;;;6.13;3.10;;;;;;;-2.08;66.80;100787.41;5054953;28;20040;-62
2021/12/26 00:39:15;;;;;;;5.07;2.97;;;;;;;-2.07;66.55;100783.88;5056335;28;20226;-62
2021/12/26 00:41:40;;;;;;;7.03;2.87;;;;;;;-2.09;66.36;100777.06;5038788;28;20029;-62
2021/12/26 00:44:07;;;;;;;4.47;2.90;;;;;;;-2.11;66.50;100781.53;5057248;28;20032;-62
2021/12/26 00:46:34;;;;;;;4.50;2.80;;;;;;;-2.08;66.73;100781.34;5059517;28;20055;-62
2021/12/26 00:49:00;;;;;;;5.30;2.90;;;;;;;-2.05;66.82;100773.38;5052351;28;20056;-62
2021/12/26 00:51:25;;;;;;;6.53;2.93;;;;;;;-2.05;66.76;100770.75;5058011;28;20446;-62
2021/12/26 00:53:50;;;;;;;6.13;3.27;;;;;;;-2.07;66.47;100770.03;5059740;28;20025;-62
2021/12/26 00:56:17;;;;;;;5.93;3.03;;;;;;;-2.10;66.27;100778.84;5054867;28;20036;-62
2021/12/26 00:58:43;;;;;;;7.10;3.10;;;;;;;-2.10;66.20;100778.00;5052821;28;20515;-62
2021/12/26 01:01:08;;;;;;;6.37;3.20;;;;;;;-2.09;66.53;100782.28;5060567;28;20072;-62
2021/12/26 01:03:34;;;;;;;5.13;3.53;;;;;;;-2.08;66.74;100786.56;5064140;28;20047;-62
2021/12/26 01:05:59;;;;;;;6.43;3.60;;;;;;;-2.04;66.76;100782.84;5051795;28;20477;-62
2021/12/26 01:08:27;;;;;;;8.07;5.10;;;;;;;-2.02;66.74;100784.44;5054814;28;20058;-62
2021/12/26 01:10:58;;;;;;;6.03;4.70;;;;;;;-2.04;66.42;100790.66;5059572;28;20055;-62
2021/12/26 01:13:36;;;;;;;5.47;3.97;;;;;;;-2.05;66.75;100788.97;5064075;28;20081;-62
2021/12/26 01:16:06;;;;;;;5.43;3.80;;;;;;;-2.03;66.78;100792.31;5064090;28;20048;-62
2021/12/26 01:18:36;;;;;;;7.10;4.30;;;;;;;-2.03;66.81;100784.50;5054781;28;20514;-66
2021/12/26 01:21:16;;;;;;;7.13;4.80;;;;;;;-2.03;66.61;100797.53;5054623;28;20483;-63
2021/12/26 01:23:42;;;;;;;7.57;4.70;;;;;;;-2.03;66.75;100795.75;5064852;28;20032;-63
2021/12/26 01:26:07;;;;;;;5.97;4.73;;;;;;;-2.02;66.77;100788.81;5054416;28;20384;-63
2021/12/26 01:28:33;;;;;;;8.80;4.60;;;;;;;-2.02;66.69;100786.22;5060173;28;20036;-62
2021/12/26 01:30:59;;;;;;;10.40;4.50;;;;;;;-2.01;66.77;100793.09;5052820;28;20040;-63
2021/12/26 01:33:26;;;;;;;8.07;4.20;;;;;;;-2.03;66.93;100781.91;5058648;28;20028;-62
2021/12/26 01:35:51;;;;;;;5.37;4.07;;;;;;;-2.03;66.99;100784.50;5058255;28;20025;-62
2021/12/26 01:38:18;;;;;;;6.00;3.40;;;;;;;-2.05;67.08;100782.00;5052309;28;20029;-63
2021/12/26 01:40:48;;;;;;;6.57;3.53;;;;;;;-2.02;66.91;100783.63;5052959;28;20025;-62
2021/12/26 01:43:14;;;;;;;5.03;3.23;;;;;;;-2.00;67.01;100782.59;5060336;28;20032;-62
2021/12/26 01:45:40;;;;;;;4.77;3.27;;;;;;;-1.98;66.95;100788.53;5058184;28;20024;-62
2021/12/26 01:48:07;;;;;;;3.90;3.50;;;;;;;-1.99;67.02;100784.25;5055813;28;20025;-62
2021/12/26 01:50:34;;;;;;;5.07;3.10;;;;;;;-1.98;66.87;100785.94;5062102;28;20666;-62
2021/12/26 01:52:59;;;;;;;7.67;4.50;;;;;;;-2.00;66.74;100774.78;5061027;28;20037;-63
2021/12/26 01:55:47;;;;;;;4.73;3.30;;;;;;;-2.02;66.89;100778.41;5059507;28;20029;-62
2021/12/26 01:58:18;;;;;;;5.60;3.47;;;;;;;-2.03;66.69;100772.34;5057241;28;20037;-62
2021/12/26 02:00:46;;;;;;;5.53;3.10;;;;;;;-2.04;66.76;100764.63;5058347;28;20514;-63
2021/12/26 02:03:13;;;;;;;5.30;3.05;;;;;;;-2.02;66.89;100768.00;5060724;28;20016;-62
2021/12/26 02:05:38;;;;;;;3.97;3.27;;;;;;;-2.02;67.14;100762.81;5061477;28;20025;-63
2021/12/26 02:08:05;;;;;;;5.90;3.43;;;;;;;-1.98;67.25;100766.88;5060013;28;20515;-63
2021/12/26 02:10:30;;;;;;;5.97;3.67;;;;;;;-1.99;67.02;100766.06;5060934;28;20051;-62
2021/12/26 02:12:55;;;;;;;6.03;3.50;;;;;;;-1.99;67.44;100771.25;5054408;28;20448;-62
2021/12/26 02:15:21;;;;;;;6.63;3.77;;;;;;;-2.01;67.16;100765.31;5056742;28;20468;-62
2021/12/26 02:17:46;;;;;;;8.20;4.97;;;;;;;-2.05;66.80;100766.41;5054422;28;20496;-62
2021/12/26 02:23:10;;;;;;;6.90;4.70;;;;;;;-2.07;67.14;100759.59;5060346;28;20119;-62
2021/12/26 02:28:20;;;;;;;7.10;5.03;;;;;;;-2.04;67.22;100762.03;5056663;28;20052;-62
2021/12/26 02:30:47;;;;;;;7.63;5.73;;;;;;;-2.03;67.37;100763.69;5059422;28;20028;-62
2021/12/26 02:33:13;;;;;;;7.47;4.67;;;;;;;-2.02;67.36;100758.44;5056028;28;20024;-63
2021/12/26 02:35:40;;;;;;;7.30;4.53;;;;;;;-2.01;67.29;100764.47;5060759;28;20025;-62
2021/12/26 02:38:06;;;;;;;8.00;4.73;;;;;;;-1.98;67.47;100759.91;5052670;28;20067;-62
2021/12/26 02:40:32;;;;;;;5.97;4.70;;;;;;;-1.95;67.45;100764.94;5060130;28;20031;-63
2021/12/26 02:42:57;;;;;;;7.30;3.77;;;;;;;-1.92;67.38;100761.31;5066058;28;20025;-63
2021/12/26 02:45:23;;;;;;;6.70;4.70;;;;;;;-1.92;67.39;100761.31;5067303;28;20016;-63
2021/12/26 02:47:50;;;;;;;6.80;4.80;;;;;;;-1.96;67.14;100757.22;5060942;28;20502;-62
2021/12/26 02:50:22;;;;;;;6.20;4.43;;;;;;;-2.00;66.97;100769.59;5059450;28;20031;-63
2021/12/26 02:52:49;;;;;;;7.03;4.30;;;;;;;-2.01;67.13;100754.06;5060330;28;20403;-62
2021/12/26 02:55:17;;;;;;;6.73;3.60;;;;;;;-2.00;67.40;100747.94;5064224;28;20082;-62
2021/12/26 02:57:49;;;;;;;6.60;4.10;;;;;;;-1.99;67.55;100741.81;5059156;28;20028;-63
2021/12/26 03:00:17;;;;;;;5.83;4.00;;;;;;;-2.02;67.33;100748.03;5042388;28;20024;-62
2021/12/26 03:02:46;;;;;;;5.73;3.50;;;;;;;-2.05;67.12;100755.16;5056787;28;20043;-62
2021/12/26 03:05:12;;;;;;;4.63;3.50;;;;;;;-2.08;67.04;100747.53;5061042;28;20032;-62
2021/12/26 03:07:38;;;;;;;8.30;4.60;;;;;;;-2.12;67.08;100751.25;5065201;28;20055;-63
2021/12/26 03:10:06;;;;;;;4.90;3.43;;;;;;;-2.13;67.14;100749.56;5061411;28;20029;-62
2021/12/26 03:12:33;;;;;;;4.93;3.27;;;;;;;-2.14;67.41;100751.34;5059171;28;20080;-62
2021/12/26 03:14:59;;;;;;;5.47;3.57;;;;;;;-2.13;67.35;100754.78;5058387;28;20036;-62
2021/12/26 03:17:25;;;;;;;10.37;5.40;;;;;;;-2.12;67.36;100759.06;5060034;28;20455;-62
2021/12/26 03:19:50;;;;;;;5.13;3.90;;;;;;;-2.14;67.29;100748.75;5055882;28;20031;-63
2021/12/26 03:22:15;;;;;;;5.33;3.70;;;;;;;-2.11;67.35;100745.13;5060187;28;20393;-63
2021/12/26 03:24:43;;;;;;;6.67;4.07;;;;;;;-2.09;67.35;100736.28;5059577;28;20017;-62
2021/12/26 03:27:08;;;;;;;6.87;4.60;;;;;;;-2.10;67.21;100734.63;5060725;28;20515;-63
2021/12/26 03:29:34;;;;;;;6.47;4.40;;;;;;;-2.13;67.30;100726.16;5056774;28;20017;-62
2021/12/26 03:31:59;;;;;;;5.80;3.77;;;;;;;-2.19;67.15;100725.63;5061554;28;20573;-62
2021/12/26 03:34:24;;;;;;;5.90;3.80;;;;;;;-2.22;67.35;100727.56;5058177;28;20036;-62
2021/12/26 03:36:52;;;;;;;4.90;3.50;;;;;;;-2.21;67.37;100726.63;5060745;28;20036;-62
2021/12/26 03:39:18;;;;;;;6.00;4.10;;;;;;;-2.21;67.63;100716.22;5056352;28;20068;-62
2021/12/26 03:41:45;;;;;;;5.40;3.23;;;;;;;-2.21;67.84;100722.28;5055389;28;20032;-63
2021/12/26 03:44:10;;;;;;;5.90;3.37;;;;;;;-2.21;67.79;100722.28;5061996;28;20036;-62
2021/12/26 03:46:36;;;;;;;5.80;3.30;;;;;;;-2.20;67.83;100712.69;5058418;28;20044;-62
2021/12/26 03:49:04;;;;;;;4.33;3.10;;;;;;;-2.19;67.93;100714.38;5056906;28;20043;-62
2021/12/26 03:51:30;;;;;;;6.63;3.63;;;;;;;-2.21;67.46;100716.22;5059108;28;20116;-63
2021/12/26 03:53:55;;;;;;;6.50;3.47;;;;;;;-2.25;67.46;100715.59;5058609;28;20455;-63
2021/12/26 03:56:21;;;;;;;7.13;3.80;;;;;;;-2.28;67.13;100728.78;5066167;28;20029;-62
2021/12/26 03:58:46;;;;;;;8.67;4.50;;;;;;;-2.31;67.37;100720.31;5052550;28;20039;-62
2021/12/26 04:01:11;;;;;;;5.80;4.70;;;;;;;-2.36;67.21;100725.78;5060689;28;20169;-63
2021/12/26 04:03:37;;;;;;;7.57;4.40;;;;;;;-2.41;67.16;100708.78;5065822;28;20466;-62
2021/12/26 04:06:04;;;;;;;6.10;4.13;;;;;;;-2.45;67.19;100717.69;5064383;28;20031;-62
2021/12/26 04:08:29;;;;;;;8.73;5.47;;;;;;;-2.47;67.29;100715.19;5054993;28;20492;-62
2021/12/26 04:10:55;;;;;;;6.23;4.17;;;;;;;-2.46;67.52;100716.84;5070226;28;20115;-62
2021/12/26 04:13:20;;;;;;;5.50;3.27;;;;;;;-2.46;67.73;100714.25;5057376;28;20056;-62
2021/12/26 04:15:46;;;;;;;6.57;3.57;;;;;;;-2.48;67.68;100703.09;5058435;28;20280;-62
2021/12/26 04:18:11;;;;;;;6.10;4.40;;;;;;;-2.51;67.67;100711.94;5054995;28;20031;-62
2021/12/26 04:20:37;;;;;;;7.33;4.53;;;;;;;-2.53;67.89;100705.97;5063177;28;20408;-62
2021/12/26 04:23:03;;;;;;;6.97;4.60;;;;;;;-2.56;67.86;100710.53;5057068;28;20025;-62
2021/12/26 04:25:28;;;;;;;8.73;5.90;;;;;;;-2.61;67.91;100708.19;5058972;28;20079;-62
2021/12/26 04:27:54;;;;;;;7.40;5.43;;;;;;;-2.63;68.12;100701.41;5060453;28;20032;-63
2021/12/26 04:30:21;;;;;;;6.90;4.60;;;;;;;-2.66;68.14;100699.81;5059372;28;20361;-62
2021/12/26 04:32:47;;;;;;;7.40;3.97;;;;;;;-2.68;68.39;100703.44;5031308;28;20036;-62
2021/12/26 04:35:13;;;;;;;8.20;5.00;;;;;;;-2.66;68.32;100704.19;5052618;28;20036;-62
2021/12/26 04:37:38;;;;;;;5.60;4.80;;;;;;;-2.67;68.46;100702.50;5055187;28;20067;-63
2021/12/26 04:40:07;;;;;;;9.63;5.20;;;;;;;-2.72;68.48;100699.34;5052775;28;20047;-63
2021/12/26 04:42:33;;;;;;;6.60;5.00;;;;;;;-2.71;68.49;100708.81;5055971;28;20054;-62
2021/12/26 04:44:58;;;;;;;8.60;5.37;;;;;;;-2.77;68.49;100706.56;5062536;28;20029;-63
2021/12/26 04:47:23;;;;;;;8.00;5.90;;;;;;;-2.81;68.58;100706.75;5060455;28;20098;-62
2021/12/26 04:49:49;;;;;;;9.40;5.93;;;;;;;-2.83;68.78;100700.81;5059077;28;20505;-62
2021/12/26 04:52:14;;;;;;;8.77;5.70;;;;;;;-2.83;68.96;100706.00;5056629;28;20074;-63
2021/12/26 04:54:39;;;;;;;6.10;4.30;;;;;;;-2.81;69.24;100700.72;5051607;28;20097;-63
2021/12/26 04:57:05;;;;;;;6.97;3.90;;;;;;;-2.78;69.42;100702.31;5060405;28;20024;-62
2021/12/26 04:59:30;;;;;;;6.63;3.40;;;;;;;-2.79;69.41;100704.06;5051757;28;20029;-62
2021/12/26 05:01:55;;;;;;;6.03;3.60;;;;;;;-2.81;69.45;100700.72;5061333;28;20115;-62
2021/12/26 05:04:21;;;;;;;7.10;3.87;;;;;;;-2.85;69.47;100700.06;5056138;28;20024;-62
2021/12/26 05:06:48;;;;;;;9.37;3.70;;;;;;;-2.84;69.63;100693.09;5058474;28;20020;-62
2021/12/26 05:09:16;;;;;;;7.73;3.60;;;;;;;-2.91;69.75;100679.63;5060628;28;20442;-62
2021/12/26 05:11:41;;;;;;;5.77;4.00;;;;;;;-2.88;69.61;100689.84;5062683;28;20056;-62
2021/12/26 05:14:06;;;;;;;6.90;3.70;;;;;;;-2.89;69.64;100685.59;5053622;28;20117;-62
2021/12/26 05:16:32;;;;;;;6.23;3.97;;;;;;;-2.86;69.74;100693.19;5061570;28;20024;-63
2021/12/26 05:18:57;;;;;;;5.63;3.47;;;;;;;-2.86;69.76;100690.59;5064646;28;20047;-62
2021/12/26 05:21:23;;;;;;;7.50;3.70;;;;;;;-2.86;69.86;100688.00;5064481;28;20287;-62
2021/12/26 05:23:48;;;;;;;5.50;3.77;;;;;;;-2.86;69.86;100680.22;5061398;28;20020;-63
2021/12/26 05:26:13;;;;;;;9.07;3.70;;;;;;;-2.87;70.00;100685.50;5061686;28;20286;-62
2021/12/26 05:28:39;;;;;;;6.63;3.90;;;;;;;-2.88;70.06;100676.03;5058722;28;20555;-63
2021/12/26 05:31:04;;;;;;;6.50;4.00;;;;;;;-2.90;69.79;100681.28;5061170;28;20504;-62
2021/12/26 05:33:29;;;;;;;6.83;4.03;;;;;;;-2.92;70.02;100679.69;5053847;28;20056;-63
2021/12/26 05:35:55;;;;;;;11.63;4.47;;;;;;;-2.96;69.76;100681.66;5056016;28;20044;-62
2021/12/26 05:38:20;;;;;;;6.40;4.27;;;;;;;-2.99;69.99;100674.03;5062764;28;20484;-63
2021/12/26 05:40:45;;;;;;;7.67;4.97;;;;;;;-2.99;70.18;100679.22;5060935;28;20028;-62
2021/12/26 05:43:11;;;;;;;8.00;4.63;;;;;;;-3.01;69.84;100665.50;5063828;28;20043;-62
2021/12/26 05:45:38;;;;;;;8.43;5.07;;;;;;;-3.01;70.21;100665.50;5060886;28;20032;-63
2021/12/26 05:48:03;;;;;;;8.43;4.10;;;;;;;-3.04;70.45;100664.84;5053570;28;20027;-63
2021/12/26 05:50:29;;;;;;;7.00;4.23;;;;;;;-3.09;70.26;100654.72;5062965;28;20029;-63
2021/12/26 05:52:54;;;;;;;5.97;3.80;;;;;;;-3.13;70.52;100658.41;5059489;28;20421;-62
2021/12/26 05:55:20;;;;;;;7.83;4.30;;;;;;;-3.14;70.58;100659.34;5058879;28;20427;-63
2021/12/26 05:57:46;;;;;;;8.33;4.70;;;;;;;-3.16;70.32;100654.25;5064060;28;20039;-63
2021/12/26 06:00:15;;;;;;;6.83;4.67;;;;;;;-3.18;70.41;100655.22;5063852;28;20028;-63
2021/12/26 06:02:40;;;;;;;7.75;4.30;;;;;;;-3.20;70.30;100652.72;5059027;28;20131;-62
2021/12/26 06:05:06;;;;;;;6.23;4.67;;;;;;;-3.22;70.46;100651.97;5064644;28;20028;-62
2021/12/26 06:07:32;;;;;;;8.17;5.53;;;;;;;-3.23;70.23;100657.25;5068010;28;20031;-63
2021/12/26 06:09:57;;;;;;;7.97;4.97;;;;;;;-3.26;70.60;100662.63;5062596;28;20424;-62
2021/12/26 06:12:23;;;;;;;7.33;5.33;;;;;;;-3.28;70.65;100657.50;5061757;28;20085;-62
2021/12/26 06:14:48;;;;;;;6.67;5.40;;;;;;;-3.28;70.75;100659.28;5062313;28;20396;-63
2021/12/26 06:17:13;;;;;;;7.80;4.33;;;;;;;-3.29;70.84;100653.25;5057681;28;20029;-63
2021/12/26 06:19:39;;;;;;;6.50;4.77;;;;;;;-3.30;70.64;100658.53;5057770;28;20040;-63
2021/12/26 06:22:06;;;;;;;7.27;4.93;;;;;;;-3.35;70.62;100653.59;5060693;28;20039;-62
2021/12/26 06:24:31;;;;;;;6.73;5.17;;;;;;;-3.37;70.96;100650.25;5062185;28;20391;-62
2021/12/26 06:26:57;;;;;;;6.53;4.60;;;;;;;-3.39;70.93;100656.47;5059368;28;20024;-62
2021/12/26 06:29:22;;;;;;;8.53;5.00;;;;;;;-3.39;71.01;100648.66;5055343;28;20021;-62
2021/12/26 06:31:47;;;;;;;6.67;4.40;;;;;;;-3.38;70.86;100652.94;5060935;28;20040;-62
2021/12/26 06:34:13;;;;;;;7.17;4.53;;;;;;;-3.37;71.09;100650.25;5053726;28;20036;-62
2021/12/26 06:36:39;;;;;;;8.73;4.53;;;;;;;-3.38;70.97;100645.16;5052336;28;20036;-62
2021/12/26 06:39:04;;;;;;;6.03;4.43;;;;;;;-3.35;71.23;100644.97;5063783;28;20471;-62
2021/12/26 06:41:29;;;;;;;6.27;4.77;;;;;;;-3.40;71.18;100645.25;5064771;28;20091;-62
2021/12/26 06:43:55;;;;;;;6.57;4.50;;;;;;;-3.41;71.31;100653.94;5061777;28;20025;-62
2021/12/26 06:46:20;;;;;;;8.60;5.57;;;;;;;-3.43;70.99;100645.41;5051457;28;20534;-62
2021/12/26 06:48:45;;;;;;;11.00;5.80;;;;;;;-3.40;71.19;100659.97;5063466;28;20035;-62
2021/12/26 06:51:11;;;;;;;7.70;5.40;;;;;;;-3.40;71.14;100653.03;5066136;28;20024;-62
2021/12/26 06:53:37;;;;;;;8.93;5.57;;;;;;;-3.41;71.14;100647.94;5059194;28;20043;-62
2021/12/26 06:56:02;;;;;;;8.10;6.03;;;;;;;-3.41;71.35;100666.09;5063549;28;20120;-62
2021/12/26 06:58:28;;;;;;;7.43;5.03;;;;;;;-3.41;71.54;100659.16;5055818;28;20028;-62
2021/12/26 07:00:53;;;;;;;8.07;5.60;;;;;;;-3.42;71.49;100657.47;5062173;28;20086;-62
2021/12/26 07:03:19;;;;;;;8.90;5.63;;;;;;;-3.41;71.58;100653.13;5058713;28;20028;-62
2021/12/26 07:05:44;;;;;;;7.67;5.50;;;;;;;-3.40;71.71;100654.78;5054898;28;20021;-62
2021/12/26 07:08:09;;;;;;;7.67;4.73;;;;;;;-3.39;71.70;100656.47;5053571;28;20428;-62
2021/12/26 07:10:35;;;;;;;9.10;6.30;;;;;;;-3.38;71.73;100663.31;5063636;28;20090;-62
2021/12/26 07:13:00;;;;;;;9.40;6.30;;;;;;;-3.38;71.68;100663.31;5067260;28;20040;-62
2021/12/26 07:15:25;;;;;;;6.33;4.73;;;;;;;-3.40;71.73;100660.81;5059940;28;20397;-62
2021/12/26 07:17:51;;;;;;;8.43;5.37;;;;;;;-3.44;71.84;100657.56;5061674;28;20427;-62
2021/12/26 07:20:16;;;;;;;7.87;5.70;;;;;;;-3.42;71.74;100651.44;5061129;28;20393;-62
2021/12/26 07:22:44;;;;;;;6.90;5.73;;;;;;;-3.42;71.92;100654.88;5061240;28;20032;-61
2021/12/26 07:25:11;;;;;;;9.13;6.10;;;;;;;-3.39;72.05;100646.06;5064610;28;20051;-62
2021/12/26 07:27:36;;;;;;;7.23;5.17;;;;;;;-3.37;72.12;100646.81;5062788;28;20128;-62
2021/12/26 07:30:04;;;;;;;7.00;5.00;;;;;;;-3.37;72.17;100636.44;5060572;28;20111;-61
2021/12/26 07:32:30;;;;;;;7.10;4.47;;;;;;;-3.39;72.33;100643.47;5058068;28;20032;-61
2021/12/26 07:34:55;;;;;;;7.07;3.87;;;;;;;-3.37;72.42;100645.06;5060391;28;20024;-61
2021/12/26 07:37:21;;;;;;;6.80;4.13;;;;;;;-3.35;72.51;100644.97;5059873;28;20105;-62
2021/12/26 07:39:46;;;;;;;22.63;12.30;;;;;;;-3.35;72.62;100648.41;5051182;28;20424;-62
2021/12/26 07:42:11;;;;;;;7.60;4.70;;;;;;;-3.35;72.68;100647.56;5057702;28;20028;-62
2021/12/26 07:44:37;;;;;;;6.80;4.60;;;;;;;-3.35;72.66;100647.56;5058071;28;20391;-61
2021/12/26 07:47:03;;;;;;;7.30;4.77;;;;;;;-3.38;72.71;100645.97;5058610;28;20024;-61
2021/12/26 07:49:28;;;;;;;8.50;5.70;;;;;;;-3.37;72.81;100639.03;5059455;28;20032;-62
2021/12/26 07:51:54;;;;;;;11.17;6.67;;;;;;;-3.35;72.81;100642.38;5057656;28;20025;-62
2021/12/26 07:54:22;;;;;;;8.77;6.73;;;;;;;-3.38;72.81;100645.16;5055387;28;20170;-62
2021/12/26 07:56:48;;;;;;;9.90;6.30;;;;;;;-3.37;72.83;100644.22;5050341;28;20035;-62
2021/12/26 07:59:13;;;;;;;9.87;5.30;;;;;;;-3.35;73.02;100647.56;5058928;28;20279;-62
2021/12/26 08:01:39;;;;;;;7.77;5.17;;;;;;;-3.34;73.04;100650.06;5058470;28;20033;-61
2021/12/26 08:04:05;;;;;;;6.07;4.90;;;;;;;-3.35;73.03;100647.56;5050401;28;20021;-62
2021/12/26 08:06:32;;;;;;;9.27;5.50;;;;;;;-3.33;73.14;100656.09;5052823;28;20087;-61
2021/12/26 08:08:58;;;;;;;9.80;6.00;;;;;;;-3.34;73.20;100657.03;5052623;28;20028;-62
2021/12/26 08:11:24;;;;;;;8.43;7.10;;;;;;;-3.35;73.31;100656.19;5060307;28;20032;-61
2021/12/26 08:13:49;;;;;;;10.93;7.20;;;;;;;-3.34;73.34;100660.47;5059279;28;20454;-61
2021/12/26 08:16:14;;;;;;;9.33;6.20;;;;;;;-3.31;73.53;100664.66;5057941;28;20033;-61
2021/12/26 08:18:40;;;;;;;7.90;4.97;;;;;;;-3.31;73.48;100662.88;5056261;28;20100;-61
2021/12/26 08:21:06;;;;;;;8.17;4.80;;;;;;;-3.30;73.59;100661.13;5060095;28;20423;-61
2021/12/26 08:23:32;;;;;;;7.17;4.20;;;;;;;-3.29;73.53;100655.84;5056724;28;20097;-61
2021/12/26 08:25:57;;;;;;;8.63;4.60;;;;;;;-3.28;73.71;100660.09;5059681;28;20025;-61
2021/12/26 08:28:23;;;;;;;9.13;4.67;;;;;;;-3.27;73.66;100658.34;5053482;28;20027;-61
2021/12/26 08:30:48;;;;;;;5.37;4.00;;;;;;;-3.27;73.92;100660.94;5055733;28;20413;-62
2021/12/26 08:33:14;;;;;;;8.87;4.87;;;;;;;-3.23;73.86;100672.81;5055263;28;20033;-62
2021/12/26 08:35:42;;;;;;;7.37;4.40;;;;;;;-3.23;73.88;100668.47;5053286;28;20021;-61
2021/12/26 08:38:08;;;;;;;10.73;6.50;;;;;;;-3.20;73.99;100665.69;5061065;28;20036;-61
2021/12/26 08:40:34;;;;;;;10.03;6.40;;;;;;;-3.16;74.05;100653.41;5063944;28;20109;-61
2021/12/26 08:42:59;;;;;;;10.50;6.43;;;;;;;-3.14;74.21;100654.97;5062435;28;20508;-61
2021/12/26 08:45:25;;;;;;;9.67;7.07;;;;;;;-3.10;74.24;100662.59;5056131;28;20025;-61
2021/12/26 08:47:52;;;;;;;11.93;8.40;;;;;;;-3.07;74.07;100660.66;5059362;28;20175;-61
2021/12/26 08:50:20;;;;;;;12.23;8.87;;;;;;;-3.00;74.28;100668.94;5057097;28;20484;-61
2021/12/26 08:52:46;;;;;;;10.63;8.37;;;;;;;-2.97;74.25;100654.00;5071319;28;20255;-61
2021/12/26 08:55:12;;;;;;;9.17;7.10;;;;;;;-2.94;74.22;100666.81;5063568;28;20185;-61
2021/12/26 08:57:37;;;;;;;12.20;8.17;;;;;;;-2.88;74.06;100665.63;5065846;28;20504;-62
2021/12/26 09:00:05;;;;;;;12.77;7.83;;;;;;;-2.82;74.28;100660.91;5055477;28;20064;-61
2021/12/26 09:02:31;;;;;;;11.60;7.80;;;;;;;-2.78;74.18;100658.13;5041687;28;20066;-62
2021/12/26 09:04:56;;;;;;;11.20;7.70;;;;;;;-2.74;74.12;100657.84;5055738;28;20046;-61
2021/12/26 09:07:21;;;;;;;14.47;9.07;;;;;;;-2.68;74.16;100661.84;5054772;28;20381;-61
2021/12/26 09:09:47;;;;;;;11.30;7.20;;;;;;;-2.65;74.23;100659.06;5049047;28;20280;-61
2021/12/26 09:12:13;;;;;;;11.10;6.93;;;;;;;-2.60;74.19;100663.09;5058166;28;20031;-61
2021/12/26 09:14:38;;;;;;;13.53;9.00;;;;;;;-2.56;74.17;100650.75;5059655;28;20412;-61
2021/12/26 09:17:05;;;;;;;10.80;8.37;;;;;;;-2.51;74.00;100646.09;5057478;28;20029;-61
2021/12/26 09:19:30;;;;;;;11.03;7.43;;;;;;;-2.53;73.89;100647.97;5050698;28;20071;-61
2021/12/26 09:21:58;;;;;;;9.50;7.37;;;;;;;-2.47;73.77;100641.53;5055108;28;20074;-61
2021/12/26 09:24:23;;;;;;;10.40;7.30;;;;;;;-2.43;73.81;100651.66;5052384;28;20400;-61
2021/12/26 09:26:49;;;;;;;9.07;6.13;;;;;;;-2.38;73.87;100644.41;5059725;28;20036;-61
2021/12/26 09:29:14;;;;;;;9.87;6.77;;;;;;;-2.35;73.95;100649.44;5054807;28;20060;-61
2021/12/26 09:31:39;;;;;;;8.27;5.90;;;;;;;-2.32;73.81;100649.25;5058806;28;20033;-61
2021/12/26 09:34:05;;;;;;;11.60;5.70;;;;;;;-2.30;73.75;100647.41;5063670;28;20072;-61
2021/12/26 09:36:30;;;;;;;9.30;5.73;;;;;;;-2.28;73.75;100653.34;5059923;28;20029;-61
2021/12/26 09:38:55;;;;;;;8.60;6.37;;;;;;;-2.22;73.66;100649.53;5053134;28;20448;-61
2021/12/26 09:41:21;;;;;;;10.60;6.07;;;;;;;-2.21;73.79;100651.22;5071006;28;20039;-60
2021/12/26 09:43:47;;;;;;;12.33;7.37;;;;;;;-2.16;73.79;100648.31;5060947;28;20044;-61
2021/12/26 09:46:13;;;;;;;11.27;5.80;;;;;;;-2.13;73.62;100651.56;5044762;28;20235;-61
2021/12/26 09:48:38;;;;;;;11.27;7.43;;;;;;;-2.10;73.58;100640.13;5053726;28;20032;-61
2021/12/26 09:51:04;;;;;;;12.13;6.87;;;;;;;-2.10;73.86;100646.16;5057521;28;20404;-61
2021/12/26 09:53:29;;;;;;;11.07;7.63;;;;;;;-2.04;73.76;100643.19;5056223;28;20504;-61
2021/12/26 09:55:54;;;;;;;10.33;6.87;;;;;;;-1.97;73.82;100643.66;5054433;28;20111;-61
2021/12/26 09:58:20;;;;;;;11.67;7.00;;;;;;;-1.94;73.89;100633.06;5054292;28;20036;-61
2021/12/26 10:00:46;;;;;;;14.63;9.20;;;;;;;-1.89;73.96;100642.25;5052437;28;20032;-61
2021/12/26 10:03:13;;;;;;;14.10;8.33;;;;;;;-1.84;73.96;100644.56;5057440;28;20527;-61
2021/12/26 10:05:53;;;;;;;13.47;9.20;;;;;;;-1.80;73.91;100638.22;5060738;28;20333;-61
2021/12/26 10:08:19;;;;;;;13.23;8.93;;;;;;;-1.75;74.06;100636.16;5056358;28;20502;-61
2021/12/26 10:11:03;;;;;;;10.57;6.57;;;;;;;-1.68;73.98;100637.47;5060433;28;20072;-61
2021/12/26 10:13:44;;;;;;;10.53;6.30;;;;;;;-1.67;74.06;100636.53;5060490;28;20085;-61
2021/12/26 10:16:10;;;;;;;9.57;6.13;;;;;;;-1.62;74.13;100624.06;5053277;28;20040;-61
2021/12/26 10:18:39;;;;;;;10.80;6.37;;;;;;;-1.57;74.25;100623.75;5056504;28;20012;-61
2021/12/26 10:21:21;;;;;;;12.10;6.38;;;;;;;-1.51;74.29;100618.13;5063957;28;20029;-61
2021/12/26 10:23:47;;;;;;;13.10;6.43;;;;;;;-1.48;74.28;100617.94;5060477;28;20017;-61
2021/12/26 10:26:27;;;;;;;10.13;6.33;;;;;;;-1.44;74.35;100626.41;5039007;28;20157;-61
2021/12/26 10:29:13;;;;;;;9.60;6.40;;;;;;;-1.37;74.29;100614.66;5056773;28;20511;-61
2021/12/26 10:31:54;;;;;;;10.57;6.60;;;;;;;-1.33;74.40;100611.75;5056452;28;20112;-61
2021/12/26 10:34:33;;;;;;;11.37;6.40;;;;;;;-1.29;74.45;100608.00;5057853;28;20025;-61
2021/12/26 10:37:02;;;;;;;12.07;7.00;;;;;;;-1.24;74.49;100589.47;5053949;28;20041;-60
2021/12/26 10:39:33;;;;;;;12.93;7.50;;;;;;;-1.20;74.55;100577.06;5057325;28;20129;-61
2021/12/26 10:42:03;;;;;;;11.73;7.27;;;;;;;-1.17;74.49;100582.91;5061436;28;20315;-61
2021/12/26 10:45:02;;;;;;;13.33;8.13;;;;;;;-1.13;74.42;100584.41;5056693;28;20113;-61
2021/12/26 10:47:30;;;;;;;13.98;9.07;;;;;;;-1.11;74.31;100576.47;5058501;28;20033;-61
2021/12/26 10:50:03;;;;;;;12.83;7.07;;;;;;;-1.10;74.35;100570.31;5056679;28;20504;-61
2021/12/26 10:52:39;;;;;;;10.07;6.93;;;;;;;-1.06;74.40;100572.63;5058063;28;20025;-60
2021/12/26 10:55:14;;;;;;;9.77;6.40;;;;;;;-1.02;74.62;100570.63;5063725;28;20020;-61
2021/12/26 10:57:45;;;;;;;15.07;7.17;;;;;;;-0.99;74.66;100576.47;5054768;28;20108;-61
2021/12/26 11:00:27;;;;;;;15.53;7.30;;;;;;;-0.97;74.76;100574.59;5056427;28;20039;-61
2021/12/26 11:02:57;;;;;;;10.77;6.43;;;;;;;-0.91;74.75;100586.38;5059300;28;20062;-61
2021/12/26 11:05:32;;;;;;;13.20;7.53;;;;;;;-0.87;74.90;100587.00;5062928;28;20661;-60
2021/12/26 11:08:03;;;;;;;14.97;7.33;;;;;;;-0.82;75.03;100585.78;5050668;28;20056;-61
2021/12/26 11:10:39;;;;;;;14.33;7.57;;;;;;;-0.79;75.08;100588.16;5051180;28;20032;-61
2021/12/26 11:13:14;;;;;;;12.97;7.97;;;;;;;-0.74;75.24;100570.44;5052540;28;20031;-60
2021/12/26 11:15:41;;;;;;;12.17;7.40;;;;;;;-0.72;75.06;100568.56;5049256;28;20838;-61
2021/12/26 11:18:09;;;;;;;14.20;7.97;;;;;;;-0.70;75.17;100560.63;5059443;28;20028;-61
2021/12/26 11:20:38;;;;;;;11.80;8.33;;;;;;;-0.67;75.16;100561.25;5058285;28;20439;-61
2021/12/26 11:23:09;;;;;;;;;;;;;;;-0.60;74.97;100559.03;5059175;28;20032;-61
2021/12/26 11:25:51;;;;;;;15.33;9.63;;;;;;;-0.63;75.00;100567.06;5054078;28;20381;-61
2021/12/26 11:28:26;;;;;;;17.17;10.60;;;;;;;-0.61;75.11;100554.75;5059867;28;20100;-61